Aura, New Jersey
Current Conditions -  °F | °C
As of 12:54 AM on Sunday 26 Oct 2014 (Local Time) from KPHL Reporting Station
Overcast Overcast  
Wind Chill: 59°   Ceiling: 6500
Heat Index: 59°   Visibility: 10mi
Dew Point: 45°   Wind: 12mph
Humidity: 60%   Direction: 230°SW
Pressure: 29.62"   Gusts: NA
Location:  39.6996°N, 75.1187°W
Report Text: KPHL 260454Z 23010KT 10SM FEW055 BKN065 OVC090 15/07 A2962 RMK AO2 SLP030 T01500072 402110078
Loading
Personal Weather Stations






























Interactive Weather Map
Tropical Storm Tracking
New forecast layout! Learn more

10-Day Weather Forecast

Advertisements
Track Severe Weather on mobile